sensor_id;sensor_type;location;lat;lon;timestamp;temperature;humidity
4556;DHT22;2290;48.674;9.018;2024-02-04T00:01:27;7.90;99.90
4556;DHT22;2290;48.674;9.018;2024-02-04T00:03:53;7.90;99.90
4556;DHT22;2290;48.674;9.018;2024-02-04T00:06:19;7.90;99.90
4556;DHT22;2290;48.674;9.018;2024-02-04T00:08:44;7.80;99.90
4556;DHT22;2290;48.674;9.018;2024-02-04T00:11:10;7.90;99.90
4556;DHT22;2290;48.674;9.018;2024-02-04T00:13:40;8.00;99.90
4556;DHT22;2290;48.674;9.018;2024-02-04T00:16:06;7.90;99.90
4556;DHT22;2290;48.674;9.018;2024-02-04T00:18:32;7.90;99.90
4556;DHT22;2290;48.674;9.018;2024-02-04T00:20:58;7.90;99.90
4556;DHT22;2290;48.674;9.018;2024-02-04T00:23:23;7.90;99.90
4556;DHT22;2290;48.674;9.018;2024-02-04T00:25:49;7.80;99.90
4556;DHT22;2290;48.674;9.018;2024-02-04T00:28:15;7.80;99.90
4556;DHT22;2290;48.674;9.018;2024-02-04T00:30:41;7.80;99.90
4556;DHT22;2290;48.674;9.018;2024-02-04T00:33:08;7.80;99.90
4556;DHT22;2290;48.674;9.018;2024-02-04T00:35:33;7.80;99.90
4556;DHT22;2290;48.674;9.018;2024-02-04T00:37:59;7.70;99.90
4556;DHT22;2290;48.674;9.018;2024-02-04T00:40:24;7.60;99.90
4556;DHT22;2290;48.674;9.018;2024-02-04T00:42:51;7.60;99.90
4556;DHT22;2290;48.674;9.018;2024-02-04T00:45:17;7.70;99.90
4556;DHT22;2290;48.674;9.018;2024-02-04T00:47:43;7.60;99.90
4556;DHT22;2290;48.674;9.018;2024-02-04T00:50:08;7.50;99.90
4556;DHT22;2290;48.674;9.018;2024-02-04T00:52:34;7.50;99.90
4556;DHT22;2290;48.674;9.018;2024-02-04T00:55:00;7.50;99.90
4556;DHT22;2290;48.674;9.018;2024-02-04T00:57:25;7.50;99.90
4556;DHT22;2290;48.674;9.018;2024-02-04T00:59:52;7.50;99.90
4556;DHT22;2290;48.674;9.018;2024-02-04T01:02:18;7.60;99.90
4556;DHT22;2290;48.674;9.018;2024-02-04T01:04:44;7.50;99.90
4556;DHT22;2290;48.674;9.018;2024-02-04T01:07:09;7.50;99.90
4556;DHT22;2290;48.674;9.018;2024-02-04T01:09:38;7.50;99.90
4556;DHT22;2290;48.674;9.018;2024-02-04T01:12:03;7.50;99.90
4556;DHT22;2290;48.674;9.018;2024-02-04T01:14:30;7.50;99.90
4556;DHT22;2290;48.674;9.018;2024-02-04T01:16:55;7.50;99.90
4556;DHT22;2290;48.674;9.018;2024-02-04T01:19:21;7.50;99.90
4556;DHT22;2290;48.674;9.018;2024-02-04T01:21:47;7.40;99.90
4556;DHT22;2290;48.674;9.018;2024-02-04T01:24:14;7.40;99.90
4556;DHT22;2290;48.674;9.018;2024-02-04T01:26:40;7.40;99.90
4556;DHT22;2290;48.674;9.018;2024-02-04T01:29:05;7.40;99.90
4556;DHT22;2290;48.674;9.018;2024-02-04T01:31:31;7.40;99.90
4556;DHT22;2290;48.674;9.018;2024-02-04T01:33:56;7.40;99.90
4556;DHT22;2290;48.674;9.018;2024-02-04T01:36:22;7.40;99.90
4556;DHT22;2290;48.674;9.018;2024-02-04T01:38:48;7.40;99.90
4556;DHT22;2290;48.674;9.018;2024-02-04T01:41:14;7.40;99.90
4556;DHT22;2290;48.674;9.018;2024-02-04T01:43:40;7.40;99.90
4556;DHT22;2290;48.674;9.018;2024-02-04T01:46:06;7.30;99.90
4556;DHT22;2290;48.674;9.018;2024-02-04T01:48:33;7.20;99.90
4556;DHT22;2290;48.674;9.018;2024-02-04T01:51:00;7.20;99.90
4556;DHT22;2290;48.674;9.018;2024-02-04T01:53:28;7.20;99.90
4556;DHT22;2290;48.674;9.018;2024-02-04T01:55:55;7.20;99.90
4556;DHT22;2290;48.674;9.018;2024-02-04T01:58:22;7.20;99.90
4556;DHT22;2290;48.674;9.018;2024-02-04T02:00:49;7.20;99.90
4556;DHT22;2290;48.674;9.018;2024-02-04T02:03:16;7.20;99.90
4556;DHT22;2290;48.674;9.018;2024-02-04T02:05:42;7.20;99.90
4556;DHT22;2290;48.674;9.018;2024-02-04T02:08:09;7.10;99.90
4556;DHT22;2290;48.674;9.018;2024-02-04T02:10:35;7.10;99.90
4556;DHT22;2290;48.674;9.018;2024-02-04T02:13:09;7.10;99.90
4556;DHT22;2290;48.674;9.018;2024-02-04T02:15:45;7.20;99.90
4556;DHT22;2290;48.674;9.018;2024-02-04T02:18:21;7.20;99.90
4556;DHT22;2290;48.674;9.018;2024-02-04T02:24:10;7.20;99.90
4556;DHT22;2290;48.674;9.018;2024-02-04T02:26:36;7.20;99.90
4556;DHT22;2290;48.674;9.018;2024-02-04T02:29:04;7.20;99.90
4556;DHT22;2290;48.674;9.018;2024-02-04T02:31:31;7.20;99.90
4556;DHT22;2290;48.674;9.018;2024-02-04T02:33:57;7.20;99.90
4556;DHT22;2290;48.674;9.018;2024-02-04T02:36:23;7.20;99.90
4556;DHT22;2290;48.674;9.018;2024-02-04T02:41:35;7.30;99.90
4556;DHT22;2290;48.674;9.018;2024-02-04T02:44:03;7.30;99.90
4556;DHT22;2290;48.674;9.018;2024-02-04T02:46:30;7.30;99.90
4556;DHT22;2290;48.674;9.018;2024-02-04T02:48:58;7.30;99.90
4556;DHT22;2290;48.674;9.018;2024-02-04T02:51:25;7.20;99.90
4556;DHT22;2290;48.674;9.018;2024-02-04T02:53:50;7.20;99.90
4556;DHT22;2290;48.674;9.018;2024-02-04T02:56:17;7.30;99.90
4556;DHT22;2290;48.674;9.018;2024-02-04T02:58:43;7.30;99.90
4556;DHT22;2290;48.674;9.018;2024-02-04T03:01:08;7.20;99.90
4556;DHT22;2290;48.674;9.018;2024-02-04T03:03:34;7.10;99.90
4556;DHT22;2290;48.674;9.018;2024-02-04T03:05:59;7.10;99.90
4556;DHT22;2290;48.674;9.018;2024-02-04T03:08:26;7.20;99.90
4556;DHT22;2290;48.674;9.018;2024-02-04T03:10:52;7.20;99.90
4556;DHT22;2290;48.674;9.018;2024-02-04T03:13:18;7.10;99.90
4556;DHT22;2290;48.674;9.018;2024-02-04T03:15:44;7.00;99.90
4556;DHT22;2290;48.674;9.018;2024-02-04T03:18:11;7.10;99.90
4556;DHT22;2290;48.674;9.018;2024-02-04T03:20:36;7.10;99.90
4556;DHT22;2290;48.674;9.018;2024-02-04T03:23:02;7.00;99.90
4556;DHT22;2290;48.674;9.018;2024-02-04T03:25:28;7.10;99.90
4556;DHT22;2290;48.674;9.018;2024-02-04T03:27:55;7.10;99.90
4556;DHT22;2290;48.674;9.018;2024-02-04T03:30:21;7.10;99.90
4556;DHT22;2290;48.674;9.018;2024-02-04T03:32:47;7.10;99.90
4556;DHT22;2290;48.674;9.018;2024-02-04T03:35:14;7.10;99.90
4556;DHT22;2290;48.674;9.018;2024-02-04T03:37:39;7.10;99.90
4556;DHT22;2290;48.674;9.018;2024-02-04T03:40:07;7.20;99.90
4556;DHT22;2290;48.674;9.018;2024-02-04T03:42:32;7.20;99.90
4556;DHT22;2290;48.674;9.018;2024-02-04T03:44:59;7.20;99.90
4556;DHT22;2290;48.674;9.018;2024-02-04T03:47:27;7.30;99.90
4556;DHT22;2290;48.674;9.018;2024-02-04T03:49:52;7.30;99.90
4556;DHT22;2290;48.674;9.018;2024-02-04T03:52:19;7.30;99.90
4556;DHT22;2290;48.674;9.018;2024-02-04T03:54:44;7.20;99.90
4556;DHT22;2290;48.674;9.018;2024-02-04T03:57:12;7.30;99.90
4556;DHT22;2290;48.674;9.018;2024-02-04T03:59:37;7.20;99.90
4556;DHT22;2290;48.674;9.018;2024-02-04T04:02:04;7.20;99.90
4556;DHT22;2290;48.674;9.018;2024-02-04T04:04:29;7.20;99.90
4556;DHT22;2290;48.674;9.018;2024-02-04T04:06:55;7.20;99.90
4556;DHT22;2290;48.674;9.018;2024-02-04T04:09:20;7.30;99.90
4556;DHT22;2290;48.674;9.018;2024-02-04T04:11:46;7.30;99.90
4556;DHT22;2290;48.674;9.018;2024-02-04T04:14:12;7.20;99.90
4556;DHT22;2290;48.674;9.018;2024-02-04T04:16:38;7.20;99.90
4556;DHT22;2290;48.674;9.018;2024-02-04T04:19:04;7.30;99.90
4556;DHT22;2290;48.674;9.018;2024-02-04T04:21:30;7.30;99.90
4556;DHT22;2290;48.674;9.018;2024-02-04T04:23:57;7.20;99.90
4556;DHT22;2290;48.674;9.018;2024-02-04T04:26:22;7.20;99.90
4556;DHT22;2290;48.674;9.018;2024-02-04T04:28:48;7.30;99.90
4556;DHT22;2290;48.674;9.018;2024-02-04T04:31:14;7.30;99.90
4556;DHT22;2290;48.674;9.018;2024-02-04T04:33:40;7.30;99.90
4556;DHT22;2290;48.674;9.018;2024-02-04T04:36:06;7.20;99.90
4556;DHT22;2290;48.674;9.018;2024-02-04T04:38:32;7.20;99.90
4556;DHT22;2290;48.674;9.018;2024-02-04T04:40:59;7.10;99.90
4556;DHT22;2290;48.674;9.018;2024-02-04T04:43:24;7.10;99.90
4556;DHT22;2290;48.674;9.018;2024-02-04T04:45:52;7.20;99.90
4556;DHT22;2290;48.674;9.018;2024-02-04T04:48:17;7.30;99.90
4556;DHT22;2290;48.674;9.018;2024-02-04T04:50:43;7.20;99.90
4556;DHT22;2290;48.674;9.018;2024-02-04T04:53:10;7.20;99.90
4556;DHT22;2290;48.674;9.018;2024-02-04T04:55:35;7.20;99.90
4556;DHT22;2290;48.674;9.018;2024-02-04T04:58:01;7.20;99.90
4556;DHT22;2290;48.674;9.018;2024-02-04T05:00:27;7.20;99.90
4556;DHT22;2290;48.674;9.018;2024-02-04T05:02:52;7.10;99.90
4556;DHT22;2290;48.674;9.018;2024-02-04T05:05:19;7.10;99.90
4556;DHT22;2290;48.674;9.018;2024-02-04T05:07:45;7.00;99.90
4556;DHT22;2290;48.674;9.018;2024-02-04T05:10:12;7.00;99.90
4556;DHT22;2290;48.674;9.018;2024-02-04T05:12:37;6.90;99.90
4556;DHT22;2290;48.674;9.018;2024-02-04T05:15:04;6.90;99.90
4556;DHT22;2290;48.674;9.018;2024-02-04T05:17:30;6.90;99.90
4556;DHT22;2290;48.674;9.018;2024-02-04T05:19:56;6.90;99.90
4556;DHT22;2290;48.674;9.018;2024-02-04T05:22:21;6.90;99.90
4556;DHT22;2290;48.674;9.018;2024-02-04T05:24:48;6.90;99.90
4556;DHT22;2290;48.674;9.018;2024-02-04T05:27:13;7.00;99.90
4556;DHT22;2290;48.674;9.018;2024-02-04T05:29:39;6.90;99.90
4556;DHT22;2290;48.674;9.018;2024-02-04T05:32:04;7.00;99.90
4556;DHT22;2290;48.674;9.018;2024-02-04T05:34:30;7.00;99.90
4556;DHT22;2290;48.674;9.018;2024-02-04T05:36:56;7.00;99.90
4556;DHT22;2290;48.674;9.018;2024-02-04T05:39:22;7.00;99.90
4556;DHT22;2290;48.674;9.018;2024-02-04T05:41:49;6.90;99.90
4556;DHT22;2290;48.674;9.018;2024-02-04T05:44:16;7.00;99.90
4556;DHT22;2290;48.674;9.018;2024-02-04T05:46:41;7.00;99.90
4556;DHT22;2290;48.674;9.018;2024-02-04T05:49:07;7.00;99.90
4556;DHT22;2290;48.674;9.018;2024-02-04T05:51:38;6.90;99.90
4556;DHT22;2290;48.674;9.018;2024-02-04T05:54:04;6.90;99.90
4556;DHT22;2290;48.674;9.018;2024-02-04T05:56:31;7.00;99.90
4556;DHT22;2290;48.674;9.018;2024-02-04T05:58:58;6.90;99.90
4556;DHT22;2290;48.674;9.018;2024-02-04T06:01:23;6.90;99.90
4556;DHT22;2290;48.674;9.018;2024-02-04T06:03:49;6.90;99.90
4556;DHT22;2290;48.674;9.018;2024-02-04T06:06:15;7.00;99.90
4556;DHT22;2290;48.674;9.018;2024-02-04T06:08:42;6.90;99.90
4556;DHT22;2290;48.674;9.018;2024-02-04T06:11:11;7.00;99.90
4556;DHT22;2290;48.674;9.018;2024-02-04T06:13:38;7.10;99.90
4556;DHT22;2290;48.674;9.018;2024-02-04T06:16:04;7.10;99.90
4556;DHT22;2290;48.674;9.018;2024-02-04T06:18:30;7.10;99.90
4556;DHT22;2290;48.674;9.018;2024-02-04T06:20:56;7.10;99.90
4556;DHT22;2290;48.674;9.018;2024-02-04T06:23:21;7.00;99.90
4556;DHT22;2290;48.674;9.018;2024-02-04T06:30:57;7.00;99.90
4556;DHT22;2290;48.674;9.018;2024-02-04T06:33:23;7.00;99.90
4556;DHT22;2290;48.674;9.018;2024-02-04T06:35:50;7.00;99.90
4556;DHT22;2290;48.674;9.018;2024-02-04T06:38:16;7.00;99.90
4556;DHT22;2290;48.674;9.018;2024-02-04T06:40:42;7.10;99.90
4556;DHT22;2290;48.674;9.018;2024-02-04T06:43:09;7.10;99.90
4556;DHT22;2290;48.674;9.018;2024-02-04T06:45:34;7.10;99.90
4556;DHT22;2290;48.674;9.018;2024-02-04T06:48:00;7.20;99.90
4556;DHT22;2290;48.674;9.018;2024-02-04T06:50:28;7.10;99.90
4556;DHT22;2290;48.674;9.018;2024-02-04T06:52:53;7.10;99.90
4556;DHT22;2290;48.674;9.018;2024-02-04T06:55:20;7.10;99.90
4556;DHT22;2290;48.674;9.018;2024-02-04T06:57:47;7.00;99.90
4556;DHT22;2290;48.674;9.018;2024-02-04T07:00:13;7.00;99.90
4556;DHT22;2290;48.674;9.018;2024-02-04T07:02:40;7.00;99.90
4556;DHT22;2290;48.674;9.018;2024-02-04T07:05:06;7.00;99.90
4556;DHT22;2290;48.674;9.018;2024-02-04T07:07:31;7.00;99.90
4556;DHT22;2290;48.674;9.018;2024-02-04T07:09:58;7.20;99.90
4556;DHT22;2290;48.674;9.018;2024-02-04T07:12:24;7.40;99.90
4556;DHT22;2290;48.674;9.018;2024-02-04T07:14:50;7.50;99.90
4556;DHT22;2290;48.674;9.018;2024-02-04T07:17:15;7.40;99.90
4556;DHT22;2290;48.674;9.018;2024-02-04T07:19:41;7.30;99.90
4556;DHT22;2290;48.674;9.018;2024-02-04T07:22:06;7.20;99.90
4556;DHT22;2290;48.674;9.018;2024-02-04T07:24:32;7.10;99.90
4556;DHT22;2290;48.674;9.018;2024-02-04T07:26:58;7.00;99.90
4556;DHT22;2290;48.674;9.018;2024-02-04T07:29:23;7.00;99.90
4556;DHT22;2290;48.674;9.018;2024-02-04T07:31:49;7.00;99.90
4556;DHT22;2290;48.674;9.018;2024-02-04T07:34:14;7.00;99.90
4556;DHT22;2290;48.674;9.018;2024-02-04T07:36:40;7.10;99.90
4556;DHT22;2290;48.674;9.018;2024-02-04T07:39:05;7.10;99.90
4556;DHT22;2290;48.674;9.018;2024-02-04T07:41:33;7.10;99.90
4556;DHT22;2290;48.674;9.018;2024-02-04T07:44:00;7.20;99.90
4556;DHT22;2290;48.674;9.018;2024-02-04T07:46:26;7.10;99.90
4556;DHT22;2290;48.674;9.018;2024-02-04T07:48:52;7.20;99.90
4556;DHT22;2290;48.674;9.018;2024-02-04T07:51:18;7.20;99.90
4556;DHT22;2290;48.674;9.018;2024-02-04T07:53:43;7.20;99.90
4556;DHT22;2290;48.674;9.018;2024-02-04T07:56:09;7.30;99.90
4556;DHT22;2290;48.674;9.018;2024-02-04T07:58:37;7.40;99.90
4556;DHT22;2290;48.674;9.018;2024-02-04T08:01:04;7.30;99.90
4556;DHT22;2290;48.674;9.018;2024-02-04T08:03:30;7.40;99.90
4556;DHT22;2290;48.674;9.018;2024-02-04T08:05:55;7.40;99.90
4556;DHT22;2290;48.674;9.018;2024-02-04T08:08:21;7.50;99.90
4556;DHT22;2290;48.674;9.018;2024-02-04T08:10:47;7.50;99.90
4556;DHT22;2290;48.674;9.018;2024-02-04T08:13:13;7.50;99.90
4556;DHT22;2290;48.674;9.018;2024-02-04T08:15:39;7.60;99.90
4556;DHT22;2290;48.674;9.018;2024-02-04T08:18:05;7.70;99.90
4556;DHT22;2290;48.674;9.018;2024-02-04T08:20:31;7.70;99.90
4556;DHT22;2290;48.674;9.018;2024-02-04T08:22:56;7.70;99.90
4556;DHT22;2290;48.674;9.018;2024-02-04T08:25:22;7.70;99.90
4556;DHT22;2290;48.674;9.018;2024-02-04T08:27:48;7.80;99.90
4556;DHT22;2290;48.674;9.018;2024-02-04T08:30:14;7.80;99.90
4556;DHT22;2290;48.674;9.018;2024-02-04T08:32:39;7.80;99.90
4556;DHT22;2290;48.674;9.018;2024-02-04T08:35:05;7.80;99.90
4556;DHT22;2290;48.674;9.018;2024-02-04T08:37:32;7.80;99.90
4556;DHT22;2290;48.674;9.018;2024-02-04T08:39:58;7.90;99.90
4556;DHT22;2290;48.674;9.018;2024-02-04T08:42:24;8.00;99.90
4556;DHT22;2290;48.674;9.018;2024-02-04T08:44:50;8.00;99.90
4556;DHT22;2290;48.674;9.018;2024-02-04T08:47:15;8.00;99.90
4556;DHT22;2290;48.674;9.018;2024-02-04T08:49:42;8.00;99.90
4556;DHT22;2290;48.674;9.018;2024-02-04T08:52:08;8.00;99.90
4556;DHT22;2290;48.674;9.018;2024-02-04T08:54:35;8.00;99.90
4556;DHT22;2290;48.674;9.018;2024-02-04T08:57:02;8.00;99.90
4556;DHT22;2290;48.674;9.018;2024-02-04T08:59:28;8.00;99.90
4556;DHT22;2290;48.674;9.018;2024-02-04T09:01:55;8.10;99.90
4556;DHT22;2290;48.674;9.018;2024-02-04T09:04:20;8.10;99.90
4556;DHT22;2290;48.674;9.018;2024-02-04T09:06:46;8.20;99.90
4556;DHT22;2290;48.674;9.018;2024-02-04T09:09:11;8.20;99.90
4556;DHT22;2290;48.674;9.018;2024-02-04T09:11:37;8.10;99.90
4556;DHT22;2290;48.674;9.018;2024-02-04T09:14:03;8.10;99.90
4556;DHT22;2290;48.674;9.018;2024-02-04T09:16:30;8.00;99.90
4556;DHT22;2290;48.674;9.018;2024-02-04T09:19:00;8.10;99.90
4556;DHT22;2290;48.674;9.018;2024-02-04T09:21:27;8.10;99.90
4556;DHT22;2290;48.674;9.018;2024-02-04T09:23:54;8.10;99.90
4556;DHT22;2290;48.674;9.018;2024-02-04T09:26:20;8.10;99.90
4556;DHT22;2290;48.674;9.018;2024-02-04T09:28:47;8.10;99.90
4556;DHT22;2290;48.674;9.018;2024-02-04T09:31:13;8.20;99.90
4556;DHT22;2290;48.674;9.018;2024-02-04T09:33:40;8.30;99.90
4556;DHT22;2290;48.674;9.018;2024-02-04T09:36:06;8.30;99.90
4556;DHT22;2290;48.674;9.018;2024-02-04T09:38:31;8.40;99.90
4556;DHT22;2290;48.674;9.018;2024-02-04T09:40:57;8.50;99.90
4556;DHT22;2290;48.674;9.018;2024-02-04T09:43:24;8.60;99.90
4556;DHT22;2290;48.674;9.018;2024-02-04T09:45:51;8.80;99.90
4556;DHT22;2290;48.674;9.018;2024-02-04T09:48:18;9.00;99.90
4556;DHT22;2290;48.674;9.018;2024-02-04T09:50:46;9.10;99.90
4556;DHT22;2290;48.674;9.018;2024-02-04T09:53:14;9.40;99.90
4556;DHT22;2290;48.674;9.018;2024-02-04T09:55:44;9.30;99.90
4556;DHT22;2290;48.674;9.018;2024-02-04T09:58:10;9.40;99.90
4556;DHT22;2290;48.674;9.018;2024-02-04T10:00:38;9.20;99.90
4556;DHT22;2290;48.674;9.018;2024-02-04T10:03:05;9.30;99.90
4556;DHT22;2290;48.674;9.018;2024-02-04T10:05:31;9.40;99.90
4556;DHT22;2290;48.674;9.018;2024-02-04T10:07:57;9.60;99.90
4556;DHT22;2290;48.674;9.018;2024-02-04T10:10:24;9.80;99.90
4556;DHT22;2290;48.674;9.018;2024-02-04T10:12:50;9.80;99.90
4556;DHT22;2290;48.674;9.018;2024-02-04T10:15:17;9.90;99.90
4556;DHT22;2290;48.674;9.018;2024-02-04T10:17:45;10.00;99.90
4556;DHT22;2290;48.674;9.018;2024-02-04T10:20:11;10.10;99.90
4556;DHT22;2290;48.674;9.018;2024-02-04T10:22:38;10.20;99.90
4556;DHT22;2290;48.674;9.018;2024-02-04T10:25:07;10.20;99.90
4556;DHT22;2290;48.674;9.018;2024-02-04T10:27:35;10.20;99.90
4556;DHT22;2290;48.674;9.018;2024-02-04T10:30:01;10.20;99.90
4556;DHT22;2290;48.674;9.018;2024-02-04T10:32:26;10.20;99.90
4556;DHT22;2290;48.674;9.018;2024-02-04T10:34:52;10.20;99.90
4556;DHT22;2290;48.674;9.018;2024-02-04T10:37:18;10.30;99.90
4556;DHT22;2290;48.674;9.018;2024-02-04T10:39:43;10.30;99.90
4556;DHT22;2290;48.674;9.018;2024-02-04T10:42:10;10.50;99.90
4556;DHT22;2290;48.674;9.018;2024-02-04T10:44:42;10.40;99.90
4556;DHT22;2290;48.674;9.018;2024-02-04T10:47:17;10.40;99.90
4556;DHT22;2290;48.674;9.018;2024-02-04T10:49:53;10.50;99.90
4556;DHT22;2290;48.674;9.018;2024-02-04T10:52:20;10.40;99.90
4556;DHT22;2290;48.674;9.018;2024-02-04T10:54:48;10.40;99.90
4556;DHT22;2290;48.674;9.018;2024-02-04T10:57:19;10.50;99.90
4556;DHT22;2290;48.674;9.018;2024-02-04T10:59:48;10.50;99.90
4556;DHT22;2290;48.674;9.018;2024-02-04T11:02:19;10.40;99.90
4556;DHT22;2290;48.674;9.018;2024-02-04T11:04:48;10.50;99.90
4556;DHT22;2290;48.674;9.018;2024-02-04T11:07:15;10.30;99.90
4556;DHT22;2290;48.674;9.018;2024-02-04T11:09:45;10.30;99.90
4556;DHT22;2290;48.674;9.018;2024-02-04T11:12:15;10.40;99.90
4556;DHT22;2290;48.674;9.018;2024-02-04T11:14:46;10.40;99.90
4556;DHT22;2290;48.674;9.018;2024-02-04T11:20:23;10.80;99.90
4556;DHT22;2290;48.674;9.018;2024-02-04T11:23:14;11.10;99.90
4556;DHT22;2290;48.674;9.018;2024-02-04T11:25:50;11.30;99.90
4556;DHT22;2290;48.674;9.018;2024-02-04T11:28:19;11.50;99.90
4556;DHT22;2290;48.674;9.018;2024-02-04T11:30:47;11.60;99.90
4556;DHT22;2290;48.674;9.018;2024-02-04T11:33:17;11.70;99.90
4556;DHT22;2290;48.674;9.018;2024-02-04T11:35:43;11.80;99.90
4556;DHT22;2290;48.674;9.018;2024-02-04T11:38:09;12.10;99.90
4556;DHT22;2290;48.674;9.018;2024-02-04T11:40:38;12.30;99.90
4556;DHT22;2290;48.674;9.018;2024-02-04T11:43:05;12.20;99.90
4556;DHT22;2290;48.674;9.018;2024-02-04T11:45:32;12.20;99.90
4556;DHT22;2290;48.674;9.018;2024-02-04T11:48:02;12.20;99.90
4556;DHT22;2290;48.674;9.018;2024-02-04T11:50:28;12.30;99.90
4556;DHT22;2290;48.674;9.018;2024-02-04T11:53:10;12.20;99.90
4556;DHT22;2290;48.674;9.018;2024-02-04T11:55:38;12.40;99.90
4556;DHT22;2290;48.674;9.018;2024-02-04T11:58:05;12.20;99.90
4556;DHT22;2290;48.674;9.018;2024-02-04T12:00:33;12.10;99.90
4556;DHT22;2290;48.674;9.018;2024-02-04T12:03:06;12.00;99.90
4556;DHT22;2290;48.674;9.018;2024-02-04T12:05:34;11.60;99.90
4556;DHT22;2290;48.674;9.018;2024-02-04T12:08:03;11.60;99.90
4556;DHT22;2290;48.674;9.018;2024-02-04T12:10:33;11.40;99.90
4556;DHT22;2290;48.674;9.018;2024-02-04T12:13:04;11.20;99.90
4556;DHT22;2290;48.674;9.018;2024-02-04T12:15:30;11.20;99.90
4556;DHT22;2290;48.674;9.018;2024-02-04T12:18:04;11.20;99.90
4556;DHT22;2290;48.674;9.018;2024-02-04T12:20:31;11.00;99.90
4556;DHT22;2290;48.674;9.018;2024-02-04T12:22:58;11.10;99.90
4556;DHT22;2290;48.674;9.018;2024-02-04T12:25:25;11.20;99.90
4556;DHT22;2290;48.674;9.018;2024-02-04T12:27:53;11.40;99.90
4556;DHT22;2290;48.674;9.018;2024-02-04T12:30:18;11.40;99.90
4556;DHT22;2290;48.674;9.018;2024-02-04T12:32:44;11.40;99.90
4556;DHT22;2290;48.674;9.018;2024-02-04T12:35:15;11.50;99.90
4556;DHT22;2290;48.674;9.018;2024-02-04T12:37:53;11.60;99.90
4556;DHT22;2290;48.674;9.018;2024-02-04T12:40:23;11.50;99.90
4556;DHT22;2290;48.674;9.018;2024-02-04T12:42:56;11.50;99.90
4556;DHT22;2290;48.674;9.018;2024-02-04T12:45:23;11.30;99.90
4556;DHT22;2290;48.674;9.018;2024-02-04T12:47:50;11.20;99.90
4556;DHT22;2290;48.674;9.018;2024-02-04T12:50:16;11.10;99.90
4556;DHT22;2290;48.674;9.018;2024-02-04T12:52:49;11.30;99.90
4556;DHT22;2290;48.674;9.018;2024-02-04T12:55:25;11.20;99.90
4556;DHT22;2290;48.674;9.018;2024-02-04T12:58:02;11.20;99.90
4556;DHT22;2290;48.674;9.018;2024-02-04T13:00:29;11.10;99.90
4556;DHT22;2290;48.674;9.018;2024-02-04T13:02:55;11.00;99.90
4556;DHT22;2290;48.674;9.018;2024-02-04T13:05:24;10.90;99.90
4556;DHT22;2290;48.674;9.018;2024-02-04T13:07:57;11.00;99.90
4556;DHT22;2290;48.674;9.018;2024-02-04T13:10:24;10.90;99.90
4556;DHT22;2290;48.674;9.018;2024-02-04T13:13:06;10.80;99.90
4556;DHT22;2290;48.674;9.018;2024-02-04T13:15:39;11.00;99.90
4556;DHT22;2290;48.674;9.018;2024-02-04T13:18:05;11.10;99.90
4556;DHT22;2290;48.674;9.018;2024-02-04T13:20:31;11.10;99.90
4556;DHT22;2290;48.674;9.018;2024-02-04T13:22:56;11.30;99.90
4556;DHT22;2290;48.674;9.018;2024-02-04T13:25:23;11.50;99.90
4556;DHT22;2290;48.674;9.018;2024-02-04T13:27:49;11.40;99.90
4556;DHT22;2290;48.674;9.018;2024-02-04T13:30:16;11.50;99.90
4556;DHT22;2290;48.674;9.018;2024-02-04T13:32:42;11.50;99.90
4556;DHT22;2290;48.674;9.018;2024-02-04T13:35:09;11.40;99.90
4556;DHT22;2290;48.674;9.018;2024-02-04T13:37:36;11.10;99.90
4556;DHT22;2290;48.674;9.018;2024-02-04T13:40:04;11.20;99.90
4556;DHT22;2290;48.674;9.018;2024-02-04T13:42:31;11.00;99.90
4556;DHT22;2290;48.674;9.018;2024-02-04T13:44:57;10.80;99.90
4556;DHT22;2290;48.674;9.018;2024-02-04T13:47:23;10.70;99.90
4556;DHT22;2290;48.674;9.018;2024-02-04T13:49:48;10.70;99.90
4556;DHT22;2290;48.674;9.018;2024-02-04T13:52:14;10.70;99.90
4556;DHT22;2290;48.674;9.018;2024-02-04T13:54:39;10.90;99.90
4556;DHT22;2290;48.674;9.018;2024-02-04T13:57:09;10.90;99.90
4556;DHT22;2290;48.674;9.018;2024-02-04T13:59:35;10.80;99.90
4556;DHT22;2290;48.674;9.018;2024-02-04T14:02:01;10.70;99.90
4556;DHT22;2290;48.674;9.018;2024-02-04T14:04:27;10.70;99.90
4556;DHT22;2290;48.674;9.018;2024-02-04T14:06:53;10.50;99.90
4556;DHT22;2290;48.674;9.018;2024-02-04T14:09:18;10.50;99.90
4556;DHT22;2290;48.674;9.018;2024-02-04T14:11:44;10.40;99.90
4556;DHT22;2290;48.674;9.018;2024-02-04T14:14:11;10.40;99.90
4556;DHT22;2290;48.674;9.018;2024-02-04T14:16:36;10.30;99.90
4556;DHT22;2290;48.674;9.018;2024-02-04T14:19:02;10.30;99.90
4556;DHT22;2290;48.674;9.018;2024-02-04T14:21:27;10.40;99.90
4556;DHT22;2290;48.674;9.018;2024-02-04T14:23:53;10.50;99.90
4556;DHT22;2290;48.674;9.018;2024-02-04T14:26:23;10.60;99.90
4556;DHT22;2290;48.674;9.018;2024-02-04T14:28:48;10.60;99.90
4556;DHT22;2290;48.674;9.018;2024-02-04T14:31:15;10.70;99.90
4556;DHT22;2290;48.674;9.018;2024-02-04T14:33:42;10.50;99.90
4556;DHT22;2290;48.674;9.018;2024-02-04T14:36:09;10.30;99.90
4556;DHT22;2290;48.674;9.018;2024-02-04T14:38:35;10.20;99.90
4556;DHT22;2290;48.674;9.018;2024-02-04T14:41:06;10.20;99.90
4556;DHT22;2290;48.674;9.018;2024-02-04T14:43:32;10.10;99.90
4556;DHT22;2290;48.674;9.018;2024-02-04T14:45:58;10.10;99.90
4556;DHT22;2290;48.674;9.018;2024-02-04T14:48:24;10.00;99.90
4556;DHT22;2290;48.674;9.018;2024-02-04T14:50:50;10.00;99.90
4556;DHT22;2290;48.674;9.018;2024-02-04T14:53:15;10.00;99.90
4556;DHT22;2290;48.674;9.018;2024-02-04T14:55:41;10.00;99.90
4556;DHT22;2290;48.674;9.018;2024-02-04T14:58:08;10.00;99.90
4556;DHT22;2290;48.674;9.018;2024-02-04T15:00:34;10.10;99.90
4556;DHT22;2290;48.674;9.018;2024-02-04T15:02:59;10.00;99.90
4556;DHT22;2290;48.674;9.018;2024-02-04T15:05:25;10.00;99.90
4556;DHT22;2290;48.674;9.018;2024-02-04T15:07:52;9.90;99.90
4556;DHT22;2290;48.674;9.018;2024-02-04T15:10:18;9.80;99.90
4556;DHT22;2290;48.674;9.018;2024-02-04T15:12:44;9.80;99.90
4556;DHT22;2290;48.674;9.018;2024-02-04T15:15:15;9.70;99.90
4556;DHT22;2290;48.674;9.018;2024-02-04T15:17:43;9.70;99.90
4556;DHT22;2290;48.674;9.018;2024-02-04T15:20:10;9.60;99.90
4556;DHT22;2290;48.674;9.018;2024-02-04T15:22:41;9.60;99.90
4556;DHT22;2290;48.674;9.018;2024-02-04T15:25:08;9.50;99.90
4556;DHT22;2290;48.674;9.018;2024-02-04T15:27:35;9.50;99.90
4556;DHT22;2290;48.674;9.018;2024-02-04T15:30:03;9.50;99.90
4556;DHT22;2290;48.674;9.018;2024-02-04T15:32:29;9.50;99.90
4556;DHT22;2290;48.674;9.018;2024-02-04T15:34:55;9.50;99.90
4556;DHT22;2290;48.674;9.018;2024-02-04T15:37:22;9.50;99.90
4556;DHT22;2290;48.674;9.018;2024-02-04T15:39:47;9.60;99.90
4556;DHT22;2290;48.674;9.018;2024-02-04T15:42:13;9.70;99.90
4556;DHT22;2290;48.674;9.018;2024-02-04T15:44:40;9.50;99.90
4556;DHT22;2290;48.674;9.018;2024-02-04T15:47:06;9.50;99.90
4556;DHT22;2290;48.674;9.018;2024-02-04T15:49:36;9.50;99.90
4556;DHT22;2290;48.674;9.018;2024-02-04T15:52:04;9.40;99.90
4556;DHT22;2290;48.674;9.018;2024-02-04T15:54:31;9.30;99.90
4556;DHT22;2290;48.674;9.018;2024-02-04T15:57:09;9.30;99.90
4556;DHT22;2290;48.674;9.018;2024-02-04T15:59:50;9.20;99.90
4556;DHT22;2290;48.674;9.018;2024-02-04T16:02:17;9.30;99.90
4556;DHT22;2290;48.674;9.018;2024-02-04T16:04:44;9.30;99.90
4556;DHT22;2290;48.674;9.018;2024-02-04T16:07:18;9.30;99.90
4556;DHT22;2290;48.674;9.018;2024-02-04T16:09:46;9.30;99.90
4556;DHT22;2290;48.674;9.018;2024-02-04T16:12:27;9.30;99.90
4556;DHT22;2290;48.674;9.018;2024-02-04T16:14:53;9.20;99.90
4556;DHT22;2290;48.674;9.018;2024-02-04T16:17:20;9.20;99.90
4556;DHT22;2290;48.674;9.018;2024-02-04T16:19:47;9.30;99.90
4556;DHT22;2290;48.674;9.018;2024-02-04T16:22:15;9.20;99.90
4556;DHT22;2290;48.674;9.018;2024-02-04T16:24:45;9.20;99.90